METAR AND TAF INFORMATION
METAR FOR LTCT
ADDS - METARS form results

(1422 UTC 17 July 2019)
Data provider http://aviationweather.gov/metar/data/
 
Forecast for: LTCT (IGDIR , TR)
Text: TAF LTCT 171340Z 1715/1724 VRB02KT 9999 SCT070
Forecast period: 1500 UTC 17 July 2019 to 0000 UTC 18 July 2019
Forecast type: FROM: standard forecast or significant change
Winds: variable direction winds at 2 MPH (2 knots; 1.0 m/s)
Visibility: 6 or more miles 10+ km)
Ceiling: at least 12,000 feet AGL
Clouds: scattered clouds at 7000 feet AGL
Weather: no significant weather forecast for this period

 AIRPORT MAP

 RUNWAY INFORMATION

 AIRPORT FREQUENCIES

 AIRPORT NEAR NAVIGATION AIDS



>